Time;durP1;ratioP1;P1;durP2;ratioP2;P2;SDS_P1;SDS_P2;PMS_P1;PMS_P2;Temp;Humidity;BMP_temperature;BMP_pressure;BME280_temperature;BME280_humidity;BME280_pressure;Samples;Min_cycle;Max_cycle;Signal;HPM_P1;HPM_P2
2023/10/15 00:01:34;;;;;;;6.90;3.58;;;;;;;;;;5063136;28;20049;-68
2023/10/15 00:04:03;;;;;;;5.30;3.10;;;;;;;;;;5071581;28;20047;-67
2023/10/15 00:06:30;;;;;;;7.45;3.65;;;;;;;;;;5070114;28;20058;-67
2023/10/15 00:08:58;;;;;;;7.10;3.72;;;;;;;;;;5054940;28;20456;-67
2023/10/15 00:11:24;;;;;;;7.13;3.50;;;;;;;;;;5066769;28;20048;-67
2023/10/15 00:13:51;;;;;;;5.95;3.65;;;;;;;;;;5068334;28;20049;-68
2023/10/15 00:16:18;;;;;;;7.47;3.35;;;;;;;;;;5067284;28;20047;-68
2023/10/15 00:18:45;;;;;;;4.97;3.30;;;;;;;;;;5066232;28;20051;-68
2023/10/15 00:21:13;;;;;;;5.28;3.38;;;;;;;;;;5067449;28;20047;-68
2023/10/15 00:23:41;;;;;;;7.72;3.45;;;;;;;;;;5062554;28;20127;-67
2023/10/15 00:26:11;;;;;;;5.13;3.75;;;;;;;;;;5068519;28;20051;-67
2023/10/15 00:28:38;;;;;;;6.82;3.33;;;;;;;;;;5067585;28;20460;-68
2023/10/15 00:31:08;;;;;;;6.10;3.55;;;;;;;;;;5058145;28;20045;-68
2023/10/15 00:33:35;;;;;;;7.25;3.70;;;;;;;;;;5064456;28;20098;-68
2023/10/15 00:36:04;;;;;;;8.40;3.50;;;;;;;;;;5064355;28;20058;-68
2023/10/15 00:38:32;;;;;;;7.43;3.50;;;;;;;;;;5066159;28;20103;-67
2023/10/15 00:41:07;;;;;;;6.20;3.00;;;;;;;;;;5069694;28;20079;-66
2023/10/15 00:43:33;;;;;;;5.47;3.22;;;;;;;;;;5069646;28;20060;-67
2023/10/15 00:46:02;;;;;;;8.93;3.50;;;;;;;;;;5066096;28;20044;-66
2023/10/15 00:48:33;;;;;;;5.40;3.50;;;;;;;;;;5064639;28;20052;-66
2023/10/15 00:51:08;;;;;;;4.45;3.20;;;;;;;;;;5062642;28;20060;-69
2023/10/15 00:53:42;;;;;;;8.52;3.28;;;;;;;;;;5070376;28;20045;-67
2023/10/15 00:56:10;;;;;;;5.88;3.28;;;;;;;;;;5063797;28;20045;-69
2023/10/15 00:58:45;;;;;;;6.72;3.22;;;;;;;;;;5063197;28;20073;-66
2023/10/15 01:01:26;;;;;;;6.80;3.85;;;;;;;;;;5063365;28;20059;-67
2023/10/15 01:03:56;;;;;;;4.85;3.45;;;;;;;;;;5061741;28;20124;-66
2023/10/15 01:06:30;;;;;;;5.55;3.35;;;;;;;;;;5069972;28;20055;-66
2023/10/15 01:08:59;;;;;;;5.63;2.97;;;;;;;;;;5062162;28;20053;-67
2023/10/15 01:11:28;;;;;;;5.65;3.65;;;;;;;;;;5069071;28;20481;-67
2023/10/15 01:13:55;;;;;;;4.93;2.90;;;;;;;;;;5059463;28;20045;-67
2023/10/15 01:16:23;;;;;;;5.93;3.15;;;;;;;;;;5069118;28;20041;-67
2023/10/15 01:18:56;;;;;;;5.40;3.25;;;;;;;;;;5066167;28;20048;-67
2023/10/15 01:21:27;;;;;;;7.15;3.03;;;;;;;;;;5068924;28;20500;-66
2023/10/15 01:24:04;;;;;;;6.50;2.95;;;;;;;;;;5071193;28;20044;-67
2023/10/15 01:26:36;;;;;;;4.97;3.00;;;;;;;;;;5067937;28;20048;-67
2023/10/15 01:29:05;;;;;;;6.03;2.80;;;;;;;;;;5058308;28;20067;-67
2023/10/15 01:31:39;;;;;;;5.68;3.20;;;;;;;;;;5068339;28;20444;-66
2023/10/15 01:34:09;;;;;;;3.35;2.50;;;;;;;;;;5071174;28;20052;-67
2023/10/15 01:36:38;;;;;;;6.40;2.83;;;;;;;;;;5063835;28;20135;-67
2023/10/15 01:39:09;;;;;;;9.30;3.58;;;;;;;;;;5065532;28;20508;-67
2023/10/15 01:41:39;;;;;;;10.02;3.53;;;;;;;;;;5059456;28;20048;-67
2023/10/15 01:44:06;;;;;;;6.10;3.00;;;;;;;;;;5065563;28;20546;-67
2023/10/15 01:46:45;;;;;;;5.68;2.72;;;;;;;;;;5069600;28;20051;-67
2023/10/15 01:49:17;;;;;;;5.45;3.13;;;;;;;;;;5068501;28;20053;-67
2023/10/15 01:51:44;;;;;;;4.28;3.40;;;;;;;;;;5055207;28;20055;-67
2023/10/15 01:54:12;;;;;;;5.25;3.08;;;;;;;;;;5068397;28;20055;-67
2023/10/15 01:56:40;;;;;;;4.97;2.95;;;;;;;;;;5071132;28;20074;-67
2023/10/15 01:59:08;;;;;;;7.85;3.28;;;;;;;;;;5069767;28;20051;-69
2023/10/15 02:01:40;;;;;;;4.75;3.13;;;;;;;;;;5070567;28;20488;-67
2023/10/15 02:04:08;;;;;;;5.82;3.40;;;;;;;;;;5063695;28;20045;-67
2023/10/15 02:06:43;;;;;;;5.85;3.03;;;;;;;;;;5055401;28;20049;-66
2023/10/15 02:09:13;;;;;;;7.38;2.92;;;;;;;;;;5069664;28;20045;-66
2023/10/15 02:11:47;;;;;;;6.60;3.15;;;;;;;;;;5067146;28;20135;-68
2023/10/15 02:14:20;;;;;;;8.27;3.13;;;;;;;;;;5070445;28;20053;-66
2023/10/15 02:16:49;;;;;;;8.88;3.05;;;;;;;;;;5069407;28;20045;-66
2023/10/15 02:19:19;;;;;;;5.35;3.17;;;;;;;;;;5063488;28;20102;-67
2023/10/15 02:21:49;;;;;;;6.95;2.95;;;;;;;;;;5065042;28;20045;-66
2023/10/15 02:24:16;;;;;;;7.32;3.50;;;;;;;;;;5059565;28;20099;-66
2023/10/15 02:26:44;;;;;;;7.15;3.15;;;;;;;;;;5064674;28;20053;-67
2023/10/15 02:29:34;;;;;;;6.32;2.90;;;;;;;;;;5067098;28;20055;-67
2023/10/15 02:32:08;;;;;;;7.40;2.92;;;;;;;;;;5065075;28;20525;-66
2023/10/15 02:34:40;;;;;;;5.55;2.70;;;;;;;;;;5069856;28;20215;-68
2023/10/15 02:37:10;;;;;;;3.70;2.72;;;;;;;;;;5058944;28;20473;-66
2023/10/15 02:39:39;;;;;;;5.45;2.90;;;;;;;;;;5070303;28;20051;-69
2023/10/15 02:42:07;;;;;;;4.38;3.10;;;;;;;;;;5058468;28;20138;-66
2023/10/15 02:44:34;;;;;;;5.05;2.95;;;;;;;;;;5070689;28;20052;-69
2023/10/15 02:47:10;;;;;;;5.13;3.25;;;;;;;;;;5070455;28;20044;-66
2023/10/15 02:49:50;;;;;;;7.20;2.53;;;;;;;;;;5056491;28;20049;-69
2023/10/15 02:52:19;;;;;;;5.43;2.45;;;;;;;;;;5062375;28;20558;-66
2023/10/15 02:54:46;;;;;;;7.70;2.47;;;;;;;;;;5066723;28;20059;-67
2023/10/15 02:57:17;;;;;;;4.40;2.70;;;;;;;;;;5060125;28;20048;-68
2023/10/15 02:59:52;;;;;;;5.18;2.70;;;;;;;;;;5072106;28;20552;-68
2023/10/15 03:02:20;;;;;;;3.45;2.30;;;;;;;;;;5073170;28;20138;-68
2023/10/15 03:04:53;;;;;;;8.05;2.60;;;;;;;;;;5060731;28;20047;-68
2023/10/15 03:07:19;;;;;;;4.40;2.47;;;;;;;;;;5072986;28;20098;-68
2023/10/15 03:09:49;;;;;;;4.50;2.65;;;;;;;;;;5073413;28;20493;-68
2023/10/15 03:12:18;;;;;;;6.38;2.58;;;;;;;;;;5072357;28;20076;-68
2023/10/15 03:14:45;;;;;;;5.70;2.92;;;;;;;;;;5069461;28;20514;-68
2023/10/15 03:17:14;;;;;;;7.60;2.53;;;;;;;;;;5066495;28;20045;-69
2023/10/15 03:19:42;;;;;;;7.25;3.20;;;;;;;;;;5071136;28;20440;-68
2023/10/15 03:22:12;;;;;;;7.43;2.22;;;;;;;;;;5070964;28;20045;-68
2023/10/15 03:24:43;;;;;;;6.80;2.65;;;;;;;;;;5058103;28;20069;-68
2023/10/15 03:27:11;;;;;;;3.92;2.67;;;;;;;;;;5070771;28;20127;-68
2023/10/15 03:29:39;;;;;;;5.53;2.42;;;;;;;;;;5069938;28;20079;-68
2023/10/15 03:32:11;;;;;;;2.90;2.40;;;;;;;;;;5063115;28;20485;-68
2023/10/15 03:34:42;;;;;;;5.03;2.75;;;;;;;;;;5062886;28;20480;-68
2023/10/15 03:37:13;;;;;;;8.02;2.60;;;;;;;;;;5066569;28;20504;-68
2023/10/15 03:42:26;;;;;;;6.65;2.78;;;;;;;;;;5068275;28;20044;-68
2023/10/15 03:44:59;;;;;;;3.60;2.45;;;;;;;;;;5071393;28;20052;-68
2023/10/15 03:47:26;;;;;;;;;;;;;;;;;;5072154;28;20048;-68
2023/10/15 03:49:55;;;;;;;6.30;3.00;;;;;;;;;;5070137;28;20300;-69
2023/10/15 03:52:22;;;;;;;5.22;2.75;;;;;;;;;;5072802;28;20044;-68
2023/10/15 03:54:49;;;;;;;3.53;2.58;;;;;;;;;;5070673;28;20041;-68
2023/10/15 03:57:17;;;;;;;6.68;3.45;;;;;;;;;;5064704;28;20419;-68
2023/10/15 03:59:45;;;;;;;3.97;2.65;;;;;;;;;;5069850;28;20071;-69
2023/10/15 04:02:22;;;;;;;3.15;2.28;;;;;;;;;;5064648;28;20057;-68
2023/10/15 04:04:56;;;;;;;6.10;2.90;;;;;;;;;;5068800;28;20501;-68
2023/10/15 04:07:24;;;;;;;7.53;2.60;;;;;;;;;;5069004;28;20119;-68
2023/10/15 04:09:51;;;;;;;7.13;3.47;;;;;;;;;;5063383;28;20044;-68
2023/10/15 04:12:19;;;;;;;6.40;3.00;;;;;;;;;;5068662;28;20416;-69
2023/10/15 04:14:46;;;;;;;6.68;2.80;;;;;;;;;;5066318;28;20142;-68
2023/10/15 04:17:15;;;;;;;6.65;2.45;;;;;;;;;;5061721;28;20044;-68
2023/10/15 04:19:43;;;;;;;4.53;2.95;;;;;;;;;;5065227;28;20088;-68
2023/10/15 04:22:14;;;;;;;6.38;2.88;;;;;;;;;;5062644;28;20106;-69
2023/10/15 04:24:41;;;;;;;5.10;2.78;;;;;;;;;;5065924;28;20091;-69
2023/10/15 04:27:14;;;;;;;5.57;2.83;;;;;;;;;;5060915;28;20044;-68
2023/10/15 04:29:48;;;;;;;4.10;2.50;;;;;;;;;;5058044;28;20068;-68
2023/10/15 04:32:23;;;;;;;6.10;2.83;;;;;;;;;;5063812;28;20428;-68
2023/10/15 04:34:52;;;;;;;7.20;2.50;;;;;;;;;;5063998;28;20055;-68
2023/10/15 04:37:20;;;;;;;7.55;2.88;;;;;;;;;;5063693;28;20132;-68
2023/10/15 04:39:51;;;;;;;6.68;2.67;;;;;;;;;;5064718;28;20101;-68
2023/10/15 04:42:21;;;;;;;6.30;2.55;;;;;;;;;;5067581;28;20049;-68
2023/10/15 04:44:49;;;;;;;3.75;2.55;;;;;;;;;;5070651;28;20059;-68
2023/10/15 04:47:25;;;;;;;7.43;2.95;;;;;;;;;;5071832;28;20044;-68
2023/10/15 04:49:56;;;;;;;8.60;4.18;;;;;;;;;;5070647;28;20158;-68
2023/10/15 04:52:23;;;;;;;8.38;2.85;;;;;;;;;;5067876;28;20489;-68
2023/10/15 04:54:49;;;;;;;6.53;3.08;;;;;;;;;;5056454;28;20045;-68
2023/10/15 04:57:16;;;;;;;10.68;4.32;;;;;;;;;;5056421;28;20055;-68
2023/10/15 04:59:42;;;;;;;6.25;2.95;;;;;;;;;;5068305;28;20055;-68
2023/10/15 05:02:09;;;;;;;8.50;3.38;;;;;;;;;;5070155;28;20105;-68
2023/10/15 05:04:37;;;;;;;7.82;3.38;;;;;;;;;;5061403;28;20494;-68
2023/10/15 05:07:03;;;;;;;6.70;3.22;;;;;;;;;;5064355;28;20488;-68
2023/10/15 05:09:31;;;;;;;7.35;3.15;;;;;;;;;;5066451;28;20044;-68
2023/10/15 05:11:58;;;;;;;5.07;3.00;;;;;;;;;;5063371;28;20165;-68
2023/10/15 05:14:25;;;;;;;7.13;3.13;;;;;;;;;;5067382;28;20049;-68
2023/10/15 05:16:51;;;;;;;7.85;3.83;;;;;;;;;;5061766;28;20055;-68
2023/10/15 05:19:19;;;;;;;7.75;3.67;;;;;;;;;;5064149;28;20045;-68
2023/10/15 05:21:49;;;;;;;5.50;2.97;;;;;;;;;;5063927;28;20634;-68
2023/10/15 05:24:18;;;;;;;6.63;2.60;;;;;;;;;;5063185;28;20102;-68
2023/10/15 05:26:47;;;;;;;9.32;3.35;;;;;;;;;;5066692;28;20056;-68
2023/10/15 05:29:15;;;;;;;3.90;2.50;;;;;;;;;;5059250;28;20044;-68
2023/10/15 05:31:41;;;;;;;4.75;2.65;;;;;;;;;;5067884;28;20059;-68
2023/10/15 05:34:08;;;;;;;4.65;2.45;;;;;;;;;;5069598;28;20051;-69
2023/10/15 05:36:35;;;;;;;4.43;2.30;;;;;;;;;;5057297;28;20067;-69
2023/10/15 05:39:04;;;;;;;8.55;2.90;;;;;;;;;;5071152;28;20118;-68
2023/10/15 05:41:32;;;;;;;4.57;2.38;;;;;;;;;;5064074;28;20289;-68
2023/10/15 05:43:58;;;;;;;6.82;3.05;;;;;;;;;;5068312;28;20048;-68
2023/10/15 05:46:25;;;;;;;6.22;2.95;;;;;;;;;;5065474;28;20041;-68
2023/10/15 05:48:51;;;;;;;6.78;2.88;;;;;;;;;;5061294;28;20052;-68
2023/10/15 05:51:18;;;;;;;12.43;3.17;;;;;;;;;;5064025;28;20055;-67
2023/10/15 05:53:44;;;;;;;10.13;3.20;;;;;;;;;;5061247;28;20122;-68
2023/10/15 05:56:12;;;;;;;3.83;2.47;;;;;;;;;;5068346;28;20044;-68
2023/10/15 05:58:39;;;;;;;6.35;3.17;;;;;;;;;;5056526;28;20047;-68
2023/10/15 06:01:06;;;;;;;4.50;2.75;;;;;;;;;;5066813;28;20048;-68
2023/10/15 06:03:33;;;;;;;6.60;2.78;;;;;;;;;;5069457;28;20420;-68
2023/10/15 06:06:01;;;;;;;5.15;2.78;;;;;;;;;;5062970;28;20072;-68
2023/10/15 06:08:29;;;;;;;6.05;2.67;;;;;;;;;;5063348;28;20044;-67
2023/10/15 06:10:57;;;;;;;3.67;2.60;;;;;;;;;;5060771;28;20059;-68
2023/10/15 06:13:25;;;;;;;6.55;3.22;;;;;;;;;;5059949;28;20131;-68
2023/10/15 06:15:52;;;;;;;7.55;2.90;;;;;;;;;;5064380;28;20052;-68
2023/10/15 06:18:19;;;;;;;7.65;2.78;;;;;;;;;;5063248;28;20052;-68
2023/10/15 06:20:47;;;;;;;7.15;3.00;;;;;;;;;;5070944;28;20091;-68
2023/10/15 06:23:13;;;;;;;5.18;3.17;;;;;;;;;;5064269;28;20049;-68
2023/10/15 06:25:40;;;;;;;5.82;2.55;;;;;;;;;;5069418;28;20044;-68
2023/10/15 06:28:07;;;;;;;6.28;2.55;;;;;;;;;;5061707;28;20045;-68
2023/10/15 06:30:35;;;;;;;4.60;2.78;;;;;;;;;;5069171;28;20135;-68
2023/10/15 06:33:01;;;;;;;8.38;3.53;;;;;;;;;;5063572;28;20040;-68
2023/10/15 06:35:28;;;;;;;7.38;3.65;;;;;;;;;;5071244;28;20047;-68
2023/10/15 06:37:59;;;;;;;5.72;3.30;;;;;;;;;;5062651;28;20041;-68
2023/10/15 06:40:26;;;;;;;7.32;3.03;;;;;;;;;;5069528;28;20423;-68
2023/10/15 06:43:00;;;;;;;7.35;3.58;;;;;;;;;;5072528;28;20063;-68
2023/10/15 06:45:27;;;;;;;7.95;3.40;;;;;;;;;;5065684;28;20091;-67
2023/10/15 06:47:55;;;;;;;9.35;3.67;;;;;;;;;;5065753;28;20052;-68
2023/10/15 06:50:22;;;;;;;6.80;3.30;;;;;;;;;;5071197;28;20055;-68
2023/10/15 06:52:49;;;;;;;8.30;4.03;;;;;;;;;;5071471;28;20044;-68
2023/10/15 06:55:16;;;;;;;13.20;5.43;;;;;;;;;;5072451;28;20044;-68
2023/10/15 06:57:43;;;;;;;10.15;5.68;;;;;;;;;;5060495;28;20049;-68
2023/10/15 07:00:12;;;;;;;10.40;5.40;;;;;;;;;;5066478;28;20063;-68
2023/10/15 07:02:39;;;;;;;12.63;5.13;;;;;;;;;;5069618;28;20091;-68
2023/10/15 07:05:07;;;;;;;10.02;5.20;;;;;;;;;;5072568;28;20055;-68
2023/10/15 07:07:34;;;;;;;6.78;4.07;;;;;;;;;;5064104;28;20048;-68
2023/10/15 07:10:01;;;;;;;7.57;4.40;;;;;;;;;;5067053;28;20059;-68
2023/10/15 07:12:27;;;;;;;10.63;5.00;;;;;;;;;;5066808;28;20053;-68
2023/10/15 07:14:54;;;;;;;7.28;4.57;;;;;;;;;;5070990;28;20051;-68
2023/10/15 07:17:20;;;;;;;7.63;4.75;;;;;;;;;;5072332;28;20044;-68
2023/10/15 07:19:47;;;;;;;7.07;3.95;;;;;;;;;;5073662;28;20456;-68
2023/10/15 07:22:15;;;;;;;12.85;6.18;;;;;;;;;;5063937;28;20053;-68
2023/10/15 07:24:41;;;;;;;10.63;5.82;;;;;;;;;;5060416;28;20496;-68
2023/10/15 07:27:08;;;;;;;15.35;5.95;;;;;;;;;;5054073;28;20055;-68
2023/10/15 07:29:35;;;;;;;11.45;4.35;;;;;;;;;;5068807;28;20432;-68
2023/10/15 07:32:01;;;;;;;10.95;4.60;;;;;;;;;;5072272;28;20496;-68
2023/10/15 07:34:28;;;;;;;10.15;4.30;;;;;;;;;;5070387;28;20049;-68
2023/10/15 07:36:55;;;;;;;6.80;3.10;;;;;;;;;;5065243;28;20048;-68
2023/10/15 07:39:24;;;;;;;8.07;3.70;;;;;;;;;;5057164;28;20067;-68
2023/10/15 07:41:51;;;;;;;7.75;3.65;;;;;;;;;;5063735;28;20045;-68
2023/10/15 07:44:18;;;;;;;9.80;4.07;;;;;;;;;;5060104;28;20136;-68
2023/10/15 07:46:45;;;;;;;8.70;3.33;;;;;;;;;;5064201;28;20056;-68
2023/10/15 07:49:12;;;;;;;7.10;3.15;;;;;;;;;;5059977;28;20049;-68
2023/10/15 07:51:39;;;;;;;8.82;3.55;;;;;;;;;;5064997;28;20139;-68
2023/10/15 07:54:06;;;;;;;5.40;3.20;;;;;;;;;;5055943;28;20507;-68
2023/10/15 07:56:34;;;;;;;6.18;2.97;;;;;;;;;;5069362;28;20052;-68
2023/10/15 07:59:01;;;;;;;5.10;3.05;;;;;;;;;;5073140;28;20047;-68
2023/10/15 08:01:28;;;;;;;7.63;2.50;;;;;;;;;;5068487;28;20055;-68
2023/10/15 08:03:55;;;;;;;7.90;2.63;;;;;;;;;;5064058;28;20047;-68
2023/10/15 08:06:23;;;;;;;7.57;2.83;;;;;;;;;;5070606;28;20554;-68
2023/10/15 08:08:50;;;;;;;7.00;3.17;;;;;;;;;;5064517;28;20044;-68
2023/10/15 08:11:16;;;;;;;6.20;2.78;;;;;;;;;;5071217;28;20098;-68
2023/10/15 08:13:44;;;;;;;4.95;2.42;;;;;;;;;;5069492;28;20048;-68
2023/10/15 08:16:11;;;;;;;6.38;2.80;;;;;;;;;;5067308;28;20044;-68
2023/10/15 08:18:38;;;;;;;4.47;2.00;;;;;;;;;;5065308;28;20508;-68
2023/10/15 08:21:05;;;;;;;5.70;2.63;;;;;;;;;;5069947;28;20098;-68
2023/10/15 08:23:32;;;;;;;3.63;1.88;;;;;;;;;;5063171;28;20041;-68
2023/10/15 08:25:59;;;;;;;5.18;2.03;;;;;;;;;;5055082;28;20041;-69
2023/10/15 08:28:26;;;;;;;6.15;1.70;;;;;;;;;;5062083;28;20165;-68
2023/10/15 08:30:54;;;;;;;3.33;1.50;;;;;;;;;;5065232;28;20044;-68
2023/10/15 08:33:21;;;;;;;5.97;2.00;;;;;;;;;;5069529;28;20098;-68
2023/10/15 08:35:48;;;;;;;6.57;2.10;;;;;;;;;;5056052;28;20052;-68
2023/10/15 08:38:15;;;;;;;5.30;2.25;;;;;;;;;;5069521;28;20048;-68
2023/10/15 08:40:45;;;;;;;2.90;1.65;;;;;;;;;;5056677;28;20049;-68
2023/10/15 08:43:14;;;;;;;3.75;1.65;;;;;;;;;;5070689;28;20424;-68
2023/10/15 08:45:42;;;;;;;4.50;1.50;;;;;;;;;;5068063;28;20500;-68
2023/10/15 08:48:15;;;;;;;2.55;1.40;;;;;;;;;;5065175;28;20051;-68
2023/10/15 08:50:41;;;;;;;5.57;2.03;;;;;;;;;;5061997;28;20075;-68
2023/10/15 08:53:09;;;;;;;3.17;1.42;;;;;;;;;;5062957;28;20412;-68
2023/10/15 08:55:37;;;;;;;4.63;1.63;;;;;;;;;;5068933;28;20144;-68
2023/10/15 08:58:06;;;;;;;4.80;1.80;;;;;;;;;;5070731;28;20049;-68
2023/10/15 09:00:36;;;;;;;3.85;1.58;;;;;;;;;;5069412;28;20174;-68
2023/10/15 09:03:04;;;;;;;4.88;1.50;;;;;;;;;;5065753;28;20397;-68
2023/10/15 09:05:33;;;;;;;4.30;1.52;;;;;;;;;;5071118;28;20048;-68
2023/10/15 09:08:06;;;;;;;2.25;1.23;;;;;;;;;;5060329;28;20067;-68
2023/10/15 09:10:33;;;;;;;;;;;;;;;;;;5061620;28;20040;-68
2023/10/15 09:13:00;;;;;;;2.63;1.13;;;;;;;;;;5063891;28;19921;-68
2023/10/15 09:15:29;;;;;;;6.28;1.20;;;;;;;;;;5071568;28;20045;-68
2023/10/15 09:17:56;;;;;;;5.03;1.67;;;;;;;;;;5070356;28;20044;-68
2023/10/15 09:20:27;;;;;;;2.60;1.10;;;;;;;;;;5064835;28;20083;-68
2023/10/15 09:22:58;;;;;;;1.58;1.10;;;;;;;;;;5068065;28;20083;-68
2023/10/15 09:25:25;;;;;;;3.67;1.35;;;;;;;;;;5071324;28;20048;-68
2023/10/15 09:27:54;;;;;;;1.58;1.10;;;;;;;;;;5065652;28;20048;-68
2023/10/15 09:30:22;;;;;;;2.63;1.02;;;;;;;;;;5071319;28;20059;-68
2023/10/15 09:32:49;;;;;;;2.55;1.00;;;;;;;;;;5056151;28;20052;-68
2023/10/15 09:35:16;;;;;;;2.35;1.00;;;;;;;;;;5067360;28;20048;-68
2023/10/15 09:37:44;;;;;;;3.38;1.10;;;;;;;;;;5065868;28;20046;-69
2023/10/15 09:40:18;;;;;;;1.50;0.95;;;;;;;;;;5059435;28;20059;-68
2023/10/15 09:42:47;;;;;;;1.80;0.90;;;;;;;;;;5070501;28;20052;-68
2023/10/15 09:45:18;;;;;;;3.20;1.20;;;;;;;;;;5069781;28;20078;-68
2023/10/15 09:47:48;;;;;;;3.40;0.90;;;;;;;;;;5065060;28;20099;-69
2023/10/15 09:50:19;;;;;;;2.97;1.00;;;;;;;;;;5069770;28;20052;-68
2023/10/15 09:52:54;;;;;;;3.10;0.90;;;;;;;;;;5055149;28;20052;-68
2023/10/15 09:55:23;;;;;;;4.65;2.15;;;;;;;;;;5068771;28;20049;-68
2023/10/15 09:57:53;;;;;;;4.50;1.08;;;;;;;;;;5065143;28;20412;-68
2023/10/15 10:00:32;;;;;;;3.15;0.90;;;;;;;;;;5064576;28;20076;-68
2023/10/15 10:03:10;;;;;;;1.75;0.90;;;;;;;;;;5053628;28;20061;-68
2023/10/15 10:05:49;;;;;;;1.40;0.90;;;;;;;;;;5065148;28;20052;-68
2023/10/15 10:08:24;;;;;;;1.83;1.05;;;;;;;;;;5060666;28;20076;-68
2023/10/15 10:11:09;;;;;;;1.67;1.00;;;;;;;;;;5062931;28;20485;-68
2023/10/15 10:14:00;;;;;;;3.72;1.10;;;;;;;;;;5062178;28;20519;-69
2023/10/15 10:16:30;;;;;;;1.90;0.90;;;;;;;;;;5060623;28;20049;-68
2023/10/15 10:18:57;;;;;;;4.18;1.00;;;;;;;;;;5063240;28;20052;-68
2023/10/15 10:21:29;;;;;;;1.38;0.90;;;;;;;;;;5065753;28;20393;-68
2023/10/15 10:23:58;;;;;;;1.77;1.10;;;;;;;;;;5064263;28;20135;-68
2023/10/15 10:26:28;;;;;;;3.05;1.02;;;;;;;;;;5054758;28;20057;-68
2023/10/15 10:28:56;;;;;;;3.85;1.10;;;;;;;;;;5060354;28;20131;-68
2023/10/15 10:31:23;;;;;;;2.38;1.02;;;;;;;;;;5063628;28;20045;-68
2023/10/15 10:33:53;;;;;;;2.72;0.90;;;;;;;;;;5067518;28;20448;-69
2023/10/15 10:36:21;;;;;;;2.20;0.90;;;;;;;;;;5058502;28;20051;-68
2023/10/15 10:38:58;;;;;;;2.38;1.00;;;;;;;;;;5068527;28;20045;-69
2023/10/15 10:41:36;;;;;;;1.38;0.90;;;;;;;;;;5061852;28;20048;-69
2023/10/15 10:44:04;;;;;;;3.33;1.00;;;;;;;;;;5062530;28;20051;-69
2023/10/15 10:46:30;;;;;;;1.70;0.80;;;;;;;;;;5059278;28;20052;-68
2023/10/15 10:49:05;;;;;;;3.10;0.85;;;;;;;;;;5058981;28;20041;-68
2023/10/15 10:51:33;;;;;;;3.47;0.90;;;;;;;;;;5057241;28;20056;-69
2023/10/15 10:54:26;;;;;;;3.63;0.95;;;;;;;;;;5061021;28;20045;-69
2023/10/15 10:57:11;;;;;;;1.02;0.77;;;;;;;;;;5064092;28;20056;-68
2023/10/15 10:59:39;;;;;;;4.15;1.10;;;;;;;;;;5061889;28;20045;-68
2023/10/15 11:02:07;;;;;;;3.17;1.10;;;;;;;;;;5068926;28;20127;-68
2023/10/15 11:04:34;;;;;;;1.85;0.90;;;;;;;;;;5063408;28;20044;-68
2023/10/15 11:07:03;;;;;;;1.85;0.80;;;;;;;;;;5064408;28;20052;-69
2023/10/15 11:09:30;;;;;;;2.05;1.00;;;;;;;;;;5061820;28;20041;-68
2023/10/15 11:11:57;;;;;;;2.95;0.90;;;;;;;;;;5073860;28;20044;-68
2023/10/15 11:14:27;;;;;;;2.53;1.00;;;;;;;;;;5065338;28;20070;-68
2023/10/15 11:16:55;;;;;;;3.75;1.02;;;;;;;;;;5073342;28;20132;-69
2023/10/15 11:19:22;;;;;;;2.95;1.20;;;;;;;;;;5061149;28;20064;-68
2023/10/15 11:21:51;;;;;;;1.67;0.80;;;;;;;;;;5068742;28;20045;-68
2023/10/15 11:24:18;;;;;;;3.67;1.00;;;;;;;;;;5067468;28;20041;-69
2023/10/15 11:26:45;;;;;;;2.95;1.00;;;;;;;;;;5070780;28;20063;-68
2023/10/15 11:29:14;;;;;;;3.03;1.10;;;;;;;;;;5071985;28;20041;-68
2023/10/15 11:31:44;;;;;;;1.75;0.93;;;;;;;;;;5069473;28;20045;-68
2023/10/15 11:34:11;;;;;;;1.85;0.75;;;;;;;;;;5073381;28;20464;-69
2023/10/15 11:36:39;;;;;;;2.08;0.90;;;;;;;;;;5068955;28;20052;-68
2023/10/15 11:39:09;;;;;;;2.60;0.98;;;;;;;;;;5062052;28;20048;-69
2023/10/15 11:41:38;;;;;;;1.20;0.90;;;;;;;;;;5064112;28;20045;-68
2023/10/15 11:44:06;;;;;;;2.05;0.80;;;;;;;;;;5065850;28;20080;-69
2023/10/15 11:46:33;;;;;;;2.60;0.90;;;;;;;;;;5069272;28;20481;-68
2023/10/15 11:49:01;;;;;;;0.98;0.88;;;;;;;;;;5065890;28;20549;-68
2023/10/15 11:51:29;;;;;;;2.35;1.05;;;;;;;;;;5070029;28;20052;-69
2023/10/15 11:53:58;;;;;;;3.20;1.20;;;;;;;;;;5072816;28;20044;-68
2023/10/15 11:56:26;;;;;;;3.33;0.95;;;;;;;;;;5061964;28;20492;-68
2023/10/15 11:58:54;;;;;;;0.98;0.85;;;;;;;;;;5070052;28;20049;-68
2023/10/15 12:01:23;;;;;;;1.50;0.77;;;;;;;;;;5067334;28;20394;-69
2023/10/15 12:03:50;;;;;;;1.30;0.77;;;;;;;;;;5066947;28;20094;-69
2023/10/15 12:06:18;;;;;;;3.67;1.60;;;;;;;;;;5055664;28;20040;-68
2023/10/15 12:08:44;;;;;;;3.72;1.38;;;;;;;;;;5068609;28;20045;-69
2023/10/15 12:11:12;;;;;;;1.48;0.90;;;;;;;;;;5069767;28;20040;-68
2023/10/15 12:13:41;;;;;;;2.78;1.20;;;;;;;;;;5068095;28;20052;-68
2023/10/15 12:16:08;;;;;;;1.65;0.90;;;;;;;;;;5069192;28;20485;-68
2023/10/15 12:18:34;;;;;;;1.92;1.02;;;;;;;;;;5069661;28;20049;-68
2023/10/15 12:21:01;;;;;;;2.88;1.30;;;;;;;;;;5066241;28;20482;-68
2023/10/15 12:23:29;;;;;;;2.55;1.20;;;;;;;;;;5069094;28;20493;-68
2023/10/15 12:25:56;;;;;;;1.75;1.00;;;;;;;;;;5068009;28;20060;-68
2023/10/15 12:28:22;;;;;;;3.03;1.00;;;;;;;;;;5064117;28;20408;-68
2023/10/15 12:30:49;;;;;;;2.83;1.20;;;;;;;;;;5059904;28;20045;-68
2023/10/15 12:33:16;;;;;;;1.83;1.33;;;;;;;;;;5061872;28;20053;-68
2023/10/15 12:35:43;;;;;;;3.63;1.67;;;;;;;;;;5065633;28;20107;-68
2023/10/15 12:38:16;;;;;;;3.13;1.20;;;;;;;;;;5069479;28;20044;-68
2023/10/15 12:40:45;;;;;;;2.88;1.17;;;;;;;;;;5063106;28;20040;-68
2023/10/15 12:43:15;;;;;;;2.22;1.00;;;;;;;;;;5061114;28;20044;-68
2023/10/15 12:45:43;;;;;;;3.40;1.48;;;;;;;;;;5060924;28;20402;-68
2023/10/15 12:48:11;;;;;;;4.13;1.20;;;;;;;;;;5070655;28;20051;-68
2023/10/15 12:50:38;;;;;;;4.63;1.30;;;;;;;;;;5069270;28;20423;-68
2023/10/15 12:53:04;;;;;;;2.95;1.75;;;;;;;;;;5070476;28;20131;-68
2023/10/15 12:55:31;;;;;;;3.30;1.10;;;;;;;;;;5071772;28;20458;-68
2023/10/15 12:57:59;;;;;;;3.03;1.17;;;;;;;;;;5065633;28;20051;-68
2023/10/15 13:00:27;;;;;;;2.90;0.98;;;;;;;;;;5066124;28;20052;-68
2023/10/15 13:02:54;;;;;;;2.97;1.02;;;;;;;;;;5062717;28;20044;-68
2023/10/15 13:05:22;;;;;;;3.10;1.05;;;;;;;;;;5066655;28;20044;-68
2023/10/15 13:07:49;;;;;;;2.35;1.00;;;;;;;;;;5068483;28;20041;-68
2023/10/15 13:10:17;;;;;;;2.53;1.00;;;;;;;;;;5069993;28;20048;-68
2023/10/15 13:12:44;;;;;;;2.85;1.00;;;;;;;;;;5061948;28;20055;-68
2023/10/15 13:15:13;;;;;;;3.20;1.50;;;;;;;;;;5069032;28;20055;-68
2023/10/15 13:17:40;;;;;;;3.30;1.25;;;;;;;;;;5066055;28;20103;-68
2023/10/15 13:20:13;;;;;;;2.65;1.30;;;;;;;;;;5070084;28;20040;-68
2023/10/15 13:22:40;;;;;;;4.75;1.20;;;;;;;;;;5062936;28;20045;-68
2023/10/15 13:25:08;;;;;;;1.60;1.00;;;;;;;;;;5064494;28;20055;-68
2023/10/15 13:27:34;;;;;;;4.07;1.27;;;;;;;;;;5067526;28;20045;-68
2023/10/15 13:30:01;;;;;;;2.45;1.17;;;;;;;;;;5066056;28;20044;-69
2023/10/15 13:32:29;;;;;;;2.13;0.85;;;;;;;;;;5064001;28;20041;-68
2023/10/15 13:34:56;;;;;;;2.10;1.10;;;;;;;;;;5062210;28;20052;-68
2023/10/15 13:37:22;;;;;;;4.75;1.40;;;;;;;;;;5068656;28;20044;-68
2023/10/15 13:39:52;;;;;;;3.67;0.90;;;;;;;;;;5062348;28;20055;-68
2023/10/15 13:42:19;;;;;;;2.45;1.10;;;;;;;;;;5065496;28;20045;-68
2023/10/15 13:44:46;;;;;;;1.65;0.80;;;;;;;;;;5062874;28;20075;-68
2023/10/15 13:47:12;;;;;;;1.73;0.80;;;;;;;;;;5064545;28;20045;-68
2023/10/15 13:49:40;;;;;;;2.33;1.00;;;;;;;;;;5057550;28;20079;-68
2023/10/15 13:52:07;;;;;;;3.50;0.93;;;;;;;;;;5064970;28;20541;-68
2023/10/15 13:54:33;;;;;;;3.88;1.08;;;;;;;;;;5068391;28;20497;-68
2023/10/15 13:57:00;;;;;;;1.77;0.80;;;;;;;;;;5069542;28;20044;-68
2023/10/15 13:59:27;;;;;;;3.58;0.82;;;;;;;;;;5068327;28;20052;-68
2023/10/15 14:01:53;;;;;;;2.40;0.90;;;;;;;;;;5066833;28;20044;-68
2023/10/15 14:04:20;;;;;;;2.55;0.90;;;;;;;;;;5067982;28;20049;-68
2023/10/15 14:06:48;;;;;;;3.90;1.10;;;;;;;;;;5069437;28;20509;-68
2023/10/15 14:09:15;;;;;;;2.05;0.75;;;;;;;;;;5064390;28;20044;-68
2023/10/15 14:11:42;;;;;;;1.80;0.90;;;;;;;;;;5068126;28;20488;-69
2023/10/15 14:14:09;;;;;;;2.65;1.10;;;;;;;;;;5064680;28;20055;-68
2023/10/15 14:16:35;;;;;;;2.20;0.95;;;;;;;;;;5066166;28;20053;-69
2023/10/15 14:19:02;;;;;;;2.67;1.05;;;;;;;;;;5065580;28;20050;-69
2023/10/15 14:21:28;;;;;;;2.05;0.70;;;;;;;;;;5068093;28;20048;-68
2023/10/15 14:23:56;;;;;;;1.08;0.50;;;;;;;;;;5067792;28;20057;-68
2023/10/15 14:26:23;;;;;;;1.17;0.60;;;;;;;;;;5069150;28;20040;-68
2023/10/15 14:28:50;;;;;;;0.82;0.52;;;;;;;;;;5067429;28;20045;-68
2023/10/15 14:31:17;;;;;;;1.30;0.57;;;;;;;;;;5057229;28;20044;-69
2023/10/15 14:33:44;;;;;;;1.63;0.80;;;;;;;;;;5070676;28;20049;-69
2023/10/15 14:36:12;;;;;;;0.85;0.60;;;;;;;;;;5064397;28;20052;-69
2023/10/15 14:38:38;;;;;;;1.02;0.82;;;;;;;;;;5065325;28;20123;-69
2023/10/15 14:41:06;;;;;;;2.35;0.90;;;;;;;;;;5073022;28;20397;-69
2023/10/15 14:43:33;;;;;;;1.65;0.80;;;;;;;;;;5067464;28;20049;-68
2023/10/15 14:46:00;;;;;;;1.65;0.85;;;;;;;;;;5069532;28;20060;-69
2023/10/15 14:48:26;;;;;;;1.83;0.90;;;;;;;;;;5060268;28;20139;-68
2023/10/15 14:50:53;;;;;;;3.33;1.30;;;;;;;;;;5068213;28;20055;-68
2023/10/15 14:53:20;;;;;;;1.30;0.80;;;;;;;;;;5059574;28;20041;-69
2023/10/15 14:55:46;;;;;;;2.58;0.88;;;;;;;;;;5060670;28;20059;-69